Time;durP1;ratioP1;P1;durP2;ratioP2;P2;SDS_P1;SDS_P2;PMS_P1;PMS_P2;Temp;Humidity;BMP_temperature;BMP_pressure;BME280_temperature;BME280_humidity;BME280_pressure;Samples;Min_cycle;Max_cycle;Signal;HPM_P1;HPM_P2
2023/07/25 00:01:08;;;;;;;9.45;3.35;;;;;;;20.73;72.12;98912.84;6071294;23;20025;-82
2023/07/25 00:03:35;;;;;;;6.25;3.50;;;;;;;20.70;71.89;98914.13;6094566;23;20655;-82
2023/07/25 00:06:03;;;;;;;8.48;3.38;;;;;;;20.70;72.24;98916.81;6094387;23;20022;-82
2023/07/25 00:08:31;;;;;;;7.13;3.35;;;;;;;20.70;72.08;98916.00;6070968;23;20029;-82
2023/07/25 00:10:59;;;;;;;9.57;3.42;;;;;;;20.72;72.37;98927.41;6095313;23;20405;-82
2023/07/25 00:13:26;;;;;;;11.45;3.35;;;;;;;20.72;72.42;98913.91;6068566;23;20804;-82
2023/07/25 00:15:53;;;;;;;6.20;3.83;;;;;;;20.72;72.48;98919.31;6094234;23;20101;-82
2023/07/25 00:18:20;;;;;;;7.50;3.75;;;;;;;20.70;72.98;98906.03;6071520;23;20043;-83
2023/07/25 00:20:47;;;;;;;6.25;3.55;;;;;;;20.69;73.02;98917.06;6121138;23;20025;-83
2023/07/25 00:23:14;;;;;;;8.50;3.80;;;;;;;20.66;72.91;98910.25;6095585;23;20450;-82
2023/07/25 00:25:40;;;;;;;12.55;4.07;;;;;;;20.66;72.51;98902.16;6073297;23;20029;-82
2023/07/25 00:28:07;;;;;;;15.02;3.78;;;;;;;20.66;72.70;98907.53;6096308;23;20026;-82
2023/07/25 00:30:34;;;;;;;12.18;3.90;;;;;;;20.68;73.15;98913.50;6120022;23;20017;-83
2023/07/25 00:33:01;;;;;;;8.70;3.67;;;;;;;20.68;73.27;98910.00;6048321;23;20025;-82
2023/07/25 00:35:28;;;;;;;12.77;3.50;;;;;;;20.65;73.19;98910.44;6096290;23;20041;-83
2023/07/25 00:37:55;;;;;;;9.35;3.60;;;;;;;20.64;73.63;98898.84;6071875;23;20037;-86
2023/07/25 00:40:22;;;;;;;9.30;4.00;;;;;;;20.62;73.61;98892.84;6072592;23;20111;-82
2023/07/25 00:42:55;;;;;;;6.97;3.35;;;;;;;20.63;73.80;98874.78;6047841;23;20525;-82
2023/07/25 00:45:22;;;;;;;14.55;3.88;;;;;;;20.64;73.88;98866.47;6096318;23;20021;-82
2023/07/25 00:47:49;;;;;;;11.93;3.80;;;;;;;20.64;73.88;98858.38;6095204;23;20056;-82
2023/07/25 00:50:16;;;;;;;7.72;4.00;;;;;;;20.65;74.08;98864.59;6097241;23;20044;-82
2023/07/25 00:52:43;;;;;;;8.23;4.03;;;;;;;20.64;73.86;98862.97;6120677;23;20022;-82
2023/07/25 00:55:10;;;;;;;9.38;3.83;;;;;;;20.63;74.31;98864.81;6094644;23;20032;-83
2023/07/25 00:57:36;;;;;;;8.30;3.28;;;;;;;20.61;74.11;98853.44;6072908;23;20021;-82
2023/07/25 01:00:04;;;;;;;9.60;3.50;;;;;;;20.63;73.90;98847.81;6072008;23;20025;-82
2023/07/25 01:02:31;;;;;;;7.95;4.03;;;;;;;20.59;74.03;98842.88;6072098;23;20080;-82
2023/07/25 01:04:58;;;;;;;11.73;4.38;;;;;;;20.60;74.03;98846.38;6096258;23;20070;-82
2023/07/25 01:07:25;;;;;;;6.63;3.60;;;;;;;20.60;74.00;98840.97;6096767;23;20724;-82
2023/07/25 01:09:52;;;;;;;6.78;3.42;;;;;;;20.58;74.31;98837.69;6096164;23;20036;-82
2023/07/25 01:12:19;;;;;;;11.48;3.42;;;;;;;20.56;74.37;98843.31;6095838;23;20048;-82
2023/07/25 01:14:45;;;;;;;7.47;3.80;;;;;;;20.56;74.34;98845.19;6071477;23;20101;-83
2023/07/25 01:17:14;;;;;;;7.47;3.83;;;;;;;20.53;74.32;98843.75;6095935;23;20367;-83
2023/07/25 01:19:43;;;;;;;11.90;4.05;;;;;;;20.53;74.03;98834.81;6097107;23;20025;-82
2023/07/25 01:22:11;;;;;;;16.08;4.72;;;;;;;20.53;74.23;98835.66;6071221;23;20092;-82
2023/07/25 01:24:46;;;;;;;7.45;3.47;;;;;;;20.47;74.68;98833.03;6071258;23;20027;-82
2023/07/25 01:27:14;;;;;;;8.05;3.88;;;;;;;20.49;74.43;98842.53;6072237;23;20123;-82
2023/07/25 01:29:41;;;;;;;8.45;3.75;;;;;;;20.49;74.25;98837.13;6072205;23;20045;-82
2023/07/25 01:32:09;;;;;;;8.20;3.58;;;;;;;20.47;74.36;98841.94;6095694;23;20088;-82
2023/07/25 01:34:36;;;;;;;10.35;4.00;;;;;;;20.47;74.31;98847.31;6119586;23;20397;-82
2023/07/25 01:37:04;;;;;;;13.07;4.00;;;;;;;20.46;74.18;98847.56;6096141;23;20013;-82
2023/07/25 01:39:31;;;;;;;8.80;3.85;;;;;;;20.45;74.29;98845.91;6048130;23;20021;-82
2023/07/25 01:41:58;;;;;;;11.13;4.57;;;;;;;20.42;74.01;98847.16;6095324;23;20040;-83
2023/07/25 01:44:25;;;;;;;7.97;3.95;;;;;;;20.39;74.05;98840.34;6071800;23;20554;-82
2023/07/25 01:46:54;;;;;;;9.38;3.90;;;;;;;20.41;74.34;98853.63;6071805;23;20033;-82
2023/07/25 01:49:21;;;;;;;6.68;3.58;;;;;;;20.39;74.07;98845.75;6095559;23;20839;-82
2023/07/25 01:51:48;;;;;;;10.55;4.30;;;;;;;20.40;73.98;98841.16;6096020;23;20017;-82
2023/07/25 01:54:16;;;;;;;7.15;4.00;;;;;;;20.37;73.68;98833.53;6095179;23;20081;-82
2023/07/25 01:56:43;;;;;;;8.93;3.58;;;;;;;20.35;73.88;98836.47;6071735;23;20675;-82
2023/07/25 01:59:12;;;;;;;16.60;3.95;;;;;;;20.35;73.94;98828.38;6072241;23;20861;-83
2023/07/25 02:01:39;;;;;;;6.95;3.50;;;;;;;20.34;73.75;98831.28;6071286;23;20017;-83
2023/07/25 02:04:06;;;;;;;9.50;3.47;;;;;;;20.32;73.77;98819.91;6095276;23;20022;-83
2023/07/25 02:06:33;;;;;;;5.45;3.60;;;;;;;20.32;73.51;98815.31;6072247;23;20049;-83
2023/07/25 02:08:59;;;;;;;9.93;4.00;;;;;;;20.31;73.79;98819.09;6071552;23;20072;-82
2023/07/25 02:11:26;;;;;;;12.82;4.00;;;;;;;20.31;73.84;98820.97;6095015;23;20395;-82
2023/07/25 02:13:53;;;;;;;14.73;3.92;;;;;;;20.30;73.54;98825.53;6094939;23;20124;-84
2023/07/25 02:16:20;;;;;;;10.65;3.80;;;;;;;20.30;74.06;98830.94;6095663;23;20021;-82
2023/07/25 02:18:47;;;;;;;7.85;3.30;;;;;;;20.29;74.40;98842.75;6070824;23;20437;-82
2023/07/25 02:21:14;;;;;;;7.10;3.63;;;;;;;20.27;73.96;98833.22;6072241;23;20363;-82
2023/07/25 02:23:41;;;;;;;9.23;4.07;;;;;;;20.27;74.81;98827.84;6070684;23;20021;-82
2023/07/25 02:26:07;;;;;;;5.70;3.72;;;;;;;20.27;74.75;98828.66;6095082;23;20049;-82
2023/07/25 02:28:34;;;;;;;7.38;3.70;;;;;;;20.26;74.52;98834.28;6071150;23;20014;-82
2023/07/25 02:31:01;;;;;;;12.05;4.15;;;;;;;20.26;74.36;98832.41;6119098;23;20076;-82
2023/07/25 02:33:28;;;;;;;8.93;3.63;;;;;;;20.26;74.58;98832.41;6094907;23;20049;-83
2023/07/25 02:35:54;;;;;;;15.68;4.28;;;;;;;20.22;74.54;98814.19;6095467;23;20084;-82
2023/07/25 02:38:21;;;;;;;10.90;3.85;;;;;;;20.25;74.51;98832.63;6070549;23;20133;-83
2023/07/25 02:40:48;;;;;;;14.32;4.13;;;;;;;20.23;74.47;98834.75;6095669;23;20017;-82
2023/07/25 02:43:15;;;;;;;11.27;4.55;;;;;;;20.21;74.54;98839.53;6070452;23;20044;-83
2023/07/25 02:45:41;;;;;;;8.80;4.13;;;;;;;20.19;74.99;98820.88;6071785;23;20059;-82
2023/07/25 02:48:08;;;;;;;9.52;3.78;;;;;;;20.18;74.89;98819.22;6071206;23;20049;-82
2023/07/25 02:50:35;;;;;;;11.57;3.80;;;;;;;20.20;75.43;98822.53;6095371;23;20730;-82
2023/07/25 02:53:02;;;;;;;10.30;4.03;;;;;;;20.15;76.14;98814.28;6094472;23;20022;-82
2023/07/25 02:55:29;;;;;;;9.68;3.83;;;;;;;20.19;76.11;98806.56;6096037;23;20018;-82
2023/07/25 02:57:56;;;;;;;7.32;3.67;;;;;;;20.17;76.24;98796.84;6094257;23;20380;-82
2023/07/25 03:00:23;;;;;;;15.30;4.65;;;;;;;20.18;76.35;98789.56;6094256;23;20109;-83
2023/07/25 03:02:50;;;;;;;9.52;4.15;;;;;;;20.16;76.29;98779.00;6095215;23;20021;-81
2023/07/25 03:05:17;;;;;;;17.52;4.40;;;;;;;20.16;76.16;98781.69;6093615;23;20028;-82
2023/07/25 03:07:44;;;;;;;12.10;4.15;;;;;;;20.07;76.80;98764.16;6070513;23;20083;-82
2023/07/25 03:10:11;;;;;;;12.32;3.92;;;;;;;20.06;76.69;98767.09;6047695;23;20096;-81
2023/07/25 03:12:38;;;;;;;11.18;3.80;;;;;;;20.04;76.72;98751.16;6093425;23;20350;-81
2023/07/25 03:15:05;;;;;;;8.73;4.38;;;;;;;20.05;77.16;98760.03;6094679;23;22149;-81
2023/07/25 03:17:32;;;;;;;12.70;3.88;;;;;;;20.02;77.42;98745.16;6094814;23;20092;-81
2023/07/25 03:19:59;;;;;;;9.80;3.92;;;;;;;20.02;77.38;98749.72;6094588;23;20354;-82
2023/07/25 03:22:26;;;;;;;8.25;3.97;;;;;;;20.01;77.41;98738.13;6094162;23;20707;-81
2023/07/25 03:24:53;;;;;;;12.10;4.05;;;;;;;19.97;77.60;98731.53;6117669;23;20105;-82
2023/07/25 03:27:19;;;;;;;13.40;4.18;;;;;;;19.97;77.64;98726.13;6046566;23;20473;-81
2023/07/25 03:29:46;;;;;;;11.82;4.50;;;;;;;19.98;77.79;98727.81;6068994;23;20077;-81
2023/07/25 03:32:13;;;;;;;14.27;4.70;;;;;;;19.97;77.97;98722.63;6094962;23;20135;-82
2023/07/25 03:34:50;;;;;;;10.82;4.60;;;;;;;19.95;78.12;98718.28;6069841;23;20026;-82
2023/07/25 03:37:17;;;;;;;13.98;4.55;;;;;;;19.93;77.81;98708.78;6072245;23;20025;-87
2023/07/25 03:39:44;;;;;;;9.45;4.78;;;;;;;19.93;77.87;98704.22;6094994;23;20025;-87
2023/07/25 03:42:11;;;;;;;8.70;4.57;;;;;;;19.88;77.91;98695.97;6071770;23;20405;-86
2023/07/25 03:44:38;;;;;;;12.52;5.28;;;;;;;19.88;78.14;98695.16;6096043;23;20021;-87
2023/07/25 03:47:05;;;;;;;12.85;5.18;;;;;;;19.89;78.37;98708.38;6071901;23;20026;-86
2023/07/25 03:49:32;;;;;;;12.48;5.00;;;;;;;19.90;78.19;98720.84;6071819;23;20417;-86
2023/07/25 03:51:59;;;;;;;14.63;4.43;;;;;;;19.90;77.98;98717.31;6071137;23;20341;-86
2023/07/25 03:54:26;;;;;;;7.95;4.60;;;;;;;19.86;77.89;98718.81;6096017;23;20048;-86
2023/07/25 03:56:53;;;;;;;7.35;4.40;;;;;;;19.88;78.35;98730.19;6073738;23;20017;-86
2023/07/25 03:59:20;;;;;;;12.23;4.35;;;;;;;19.85;78.31;98734.16;6122660;23;20022;-86
2023/07/25 04:01:47;;;;;;;13.90;5.38;;;;;;;19.85;78.39;98734.16;6072274;23;20645;-87
2023/07/25 04:04:14;;;;;;;8.55;4.60;;;;;;;19.85;78.11;98738.72;6073416;23;20018;-86
2023/07/25 04:06:41;;;;;;;8.48;4.40;;;;;;;19.80;78.75;98742.06;6073524;23;20025;-87
2023/07/25 04:09:08;;;;;;;10.98;5.30;;;;;;;19.84;78.41;98751.34;6096731;23;20021;-87
2023/07/25 04:11:34;;;;;;;9.90;4.88;;;;;;;19.86;78.77;98743.06;6122496;23;20025;-87
2023/07/25 04:14:02;;;;;;;11.68;5.45;;;;;;;19.90;78.89;98736.19;6072901;23;20057;-86
2023/07/25 04:16:29;;;;;;;11.07;4.95;;;;;;;19.90;78.96;98728.09;6097280;23;20024;-87
2023/07/25 04:18:56;;;;;;;8.90;4.75;;;;;;;19.92;78.73;98734.91;6097669;23;20028;-86
2023/07/25 04:21:22;;;;;;;10.38;4.72;;;;;;;19.92;79.15;98742.16;6097330;23;20025;-86
2023/07/25 04:23:49;;;;;;;12.30;5.28;;;;;;;19.91;79.16;98749.41;6097113;23;20021;-86
2023/07/25 04:26:16;;;;;;;10.68;5.28;;;;;;;19.92;79.19;98755.63;6121467;23;20021;-86
2023/07/25 04:28:43;;;;;;;12.23;4.88;;;;;;;19.89;79.12;98756.06;6096486;23;20085;-86
2023/07/25 04:31:10;;;;;;;13.35;5.65;;;;;;;19.87;79.27;98752.78;6072663;23;20025;-86
2023/07/25 04:33:37;;;;;;;11.48;5.25;;;;;;;19.87;79.19;98753.63;6073205;23;20021;-86
2023/07/25 04:36:04;;;;;;;14.40;5.30;;;;;;;19.87;79.08;98742.00;6072917;23;20017;-87
2023/07/25 04:38:30;;;;;;;13.10;5.70;;;;;;;19.84;79.26;98748.66;6071171;23;20032;-87
2023/07/25 04:40:57;;;;;;;11.52;4.97;;;;;;;19.85;79.47;98760.28;6073761;23;20025;-86
2023/07/25 04:43:24;;;;;;;11.30;5.35;;;;;;;19.82;79.71;98761.53;6072312;23;20021;-86
2023/07/25 04:45:51;;;;;;;8.95;5.45;;;;;;;19.81;79.30;98767.13;6073808;23;20053;-86
2023/07/25 04:48:21;;;;;;;7.80;4.90;;;;;;;19.82;79.65;98776.84;6120797;23;20539;-87
2023/07/25 04:50:47;;;;;;;8.90;4.93;;;;;;;19.81;79.70;98788.69;6121398;23;20013;-86
2023/07/25 04:53:14;;;;;;;11.80;4.57;;;;;;;19.82;79.84;98791.16;6072652;23;20029;-85
2023/07/25 04:55:41;;;;;;;9.55;4.30;;;;;;;19.83;79.93;98795.50;6096658;23;20477;-86
2023/07/25 04:58:08;;;;;;;10.38;4.78;;;;;;;19.87;79.97;98795.88;6096471;23;20100;-85
2023/07/25 05:00:35;;;;;;;11.82;5.28;;;;;;;19.85;80.04;98789.91;6072858;23;20100;-86
2023/07/25 05:03:01;;;;;;;9.70;4.53;;;;;;;19.84;80.43;98791.75;6070490;23;20653;-85
2023/07/25 05:05:28;;;;;;;7.93;4.32;;;;;;;19.83;80.51;98787.41;6072229;23;20021;-86
2023/07/25 05:07:55;;;;;;;9.88;4.40;;;;;;;19.85;80.65;98789.91;6073493;23;20092;-87
2023/07/25 05:10:22;;;;;;;13.35;4.72;;;;;;;19.84;80.74;98791.75;6096206;23;20048;-86
2023/07/25 05:12:49;;;;;;;17.17;5.28;;;;;;;19.85;80.41;98793.41;6071928;23;20033;-86
2023/07/25 05:15:16;;;;;;;8.32;4.10;;;;;;;19.86;80.88;98788.84;6120812;23;20013;-86
2023/07/25 05:17:43;;;;;;;10.20;4.35;;;;;;;19.88;80.72;98789.47;6119537;23;20437;-87
2023/07/25 05:20:10;;;;;;;11.15;4.97;;;;;;;19.87;80.78;98783.25;6096050;23;20033;-86
2023/07/25 05:22:36;;;;;;;11.23;5.50;;;;;;;19.87;80.88;98785.94;6096290;23;20021;-86
2023/07/25 05:25:03;;;;;;;11.57;5.28;;;;;;;19.87;81.22;98785.94;6095906;23;20097;-86
2023/07/25 05:27:30;;;;;;;9.43;5.00;;;;;;;19.88;81.08;98786.75;6095958;23;20347;-86
2023/07/25 05:29:57;;;;;;;9.90;4.78;;;;;;;19.86;81.11;98791.53;6119765;23;20045;-86
2023/07/25 05:32:24;;;;;;;18.15;6.50;;;;;;;19.85;81.27;98790.72;6096832;23;20033;-87
2023/07/25 05:34:51;;;;;;;11.85;5.00;;;;;;;19.88;81.47;98797.53;6094503;23;20033;-84
2023/07/25 05:37:18;;;;;;;10.55;4.60;;;;;;;19.87;81.38;98795.88;6120259;23;20017;-86
2023/07/25 05:39:45;;;;;;;11.98;5.15;;;;;;;19.87;81.56;98795.88;6096106;23;20056;-85
2023/07/25 05:42:12;;;;;;;9.38;4.60;;;;;;;19.88;81.99;98802.94;6096681;23;20061;-85
2023/07/25 05:44:39;;;;;;;11.23;5.07;;;;;;;19.88;81.85;98794.84;6094589;23;20029;-86
2023/07/25 05:47:06;;;;;;;14.43;4.35;;;;;;;19.89;81.86;98788.41;6096275;23;20032;-86
2023/07/25 05:49:32;;;;;;;11.93;4.80;;;;;;;19.87;81.98;98790.47;6096653;23;20028;-86
2023/07/25 05:51:59;;;;;;;10.45;4.20;;;;;;;19.89;81.89;98786.53;6047755;23;20041;-86
2023/07/25 05:54:27;;;;;;;12.57;4.63;;;;;;;19.88;81.87;98789.47;6119475;23;20105;-84
2023/07/25 05:56:54;;;;;;;14.77;5.97;;;;;;;19.84;82.58;98783.66;6096492;23;20085;-85
2023/07/25 05:59:21;;;;;;;10.60;5.43;;;;;;;19.86;82.75;98783.47;6072321;23;20026;-85
2023/07/25 06:01:48;;;;;;;12.07;5.30;;;;;;;19.83;82.64;98776.66;6095647;23;20825;-85
2023/07/25 06:04:15;;;;;;;12.40;5.30;;;;;;;19.85;82.29;98771.06;6095587;23;20017;-84
2023/07/25 06:06:42;;;;;;;11.23;5.20;;;;;;;19.85;82.52;98774.56;6096713;23;20017;-85
2023/07/25 06:09:09;;;;;;;13.77;4.90;;;;;;;19.85;82.38;98771.88;6145736;23;20749;-85
2023/07/25 06:11:36;;;;;;;10.40;5.07;;;;;;;19.84;82.16;98770.19;6120910;23;20088;-84
2023/07/25 06:14:03;;;;;;;11.10;4.93;;;;;;;19.81;82.01;98761.75;6094862;23;20037;-84
2023/07/25 06:16:31;;;;;;;14.65;4.63;;;;;;;19.81;82.01;98769.84;6120174;23;20018;-84
2023/07/25 06:18:57;;;;;;;12.38;5.43;;;;;;;19.79;83.13;98770.03;6071844;23;20021;-84
2023/07/25 06:21:24;;;;;;;14.60;5.47;;;;;;;19.81;82.89;98767.13;6072275;23;20092;-84
2023/07/25 06:23:51;;;;;;;13.27;5.35;;;;;;;19.80;82.60;98762.81;6119494;23;20109;-85
2023/07/25 06:26:18;;;;;;;20.17;5.80;;;;;;;19.81;82.52;98772.53;6095089;23;20013;-85
2023/07/25 06:28:45;;;;;;;16.80;5.00;;;;;;;19.79;82.75;98769.22;6095331;23;20028;-85
2023/07/25 06:31:11;;;;;;;11.55;4.95;;;;;;;19.78;82.36;98765.72;6120292;23;20524;-85
2023/07/25 06:33:38;;;;;;;15.15;5.28;;;;;;;19.78;82.55;98760.31;6120213;23;20028;-85
2023/07/25 06:36:05;;;;;;;10.43;5.72;;;;;;;19.80;82.59;98760.13;6145197;23;20370;-85
2023/07/25 06:38:32;;;;;;;11.50;5.00;;;;;;;19.80;82.61;98768.19;6119865;23;20031;-86
2023/07/25 06:40:58;;;;;;;9.88;4.65;;;;;;;19.77;82.78;98752.44;6095634;23;20332;-85
2023/07/25 06:43:25;;;;;;;14.90;5.00;;;;;;;19.81;83.18;98754.50;6118024;23;20105;-84
2023/07/25 06:45:52;;;;;;;14.32;5.70;;;;;;;19.82;83.31;98752.59;6071484;23;20025;-85
2023/07/25 06:48:19;;;;;;;11.77;4.85;;;;;;;19.83;83.65;98746.19;6095338;23;20025;-85
2023/07/25 06:50:46;;;;;;;9.25;4.50;;;;;;;19.87;83.48;98742.84;6095324;23;20149;-85
2023/07/25 06:53:13;;;;;;;7.90;4.35;;;;;;;19.89;83.67;98732.63;6094738;23;20080;-86
2023/07/25 06:55:40;;;;;;;10.10;4.15;;;;;;;19.94;83.68;98740.06;6095854;23;20021;-85
2023/07/25 06:58:07;;;;;;;13.50;4.28;;;;;;;19.96;83.81;98735.28;6096184;23;20191;-86
2023/07/25 07:00:37;;;;;;;10.98;4.55;;;;;;;19.99;83.72;98734.81;6094592;23;20129;-86
2023/07/25 07:03:05;;;;;;;11.32;4.18;;;;;;;20.06;83.72;98737.47;6094953;23;20056;-86
2023/07/25 07:05:32;;;;;;;10.40;4.47;;;;;;;20.11;83.89;98748.38;6095738;23;20036;-85
2023/07/25 07:08:00;;;;;;;8.45;4.05;;;;;;;20.16;83.51;98743.16;6119091;23;20087;-85
2023/07/25 07:10:27;;;;;;;9.82;4.00;;;;;;;20.20;83.47;98748.91;6071789;23;20064;-86
2023/07/25 07:12:54;;;;;;;10.10;4.03;;;;;;;20.20;83.31;98747.06;6094206;23;20035;-86
2023/07/25 07:15:24;;;;;;;9.90;4.15;;;;;;;20.22;83.17;98742.25;6096350;23;21015;-85
2023/07/25 07:17:54;;;;;;;6.13;3.30;;;;;;;20.24;82.98;98725.84;6095883;23;21583;-86
2023/07/25 07:20:21;;;;;;;8.48;3.72;;;;;;;20.27;82.86;98725.41;6096047;23;20466;-85
2023/07/25 07:22:48;;;;;;;9.07;3.70;;;;;;;20.30;82.41;98719.53;6095318;23;20025;-86
2023/07/25 07:25:15;;;;;;;8.35;3.33;;;;;;;20.32;82.20;98725.53;6095463;23;20405;-86
2023/07/25 07:27:41;;;;;;;8.00;2.80;;;;;;;20.36;81.56;98715.97;6095492;23;20018;-86
2023/07/25 07:30:08;;;;;;;7.88;3.70;;;;;;;20.38;81.39;98712.00;6094493;23;20029;-87
2023/07/25 07:32:35;;;;;;;12.02;3.13;;;;;;;20.39;81.64;98727.09;6070979;23;20129;-87
2023/07/25 07:35:02;;;;;;;6.05;2.80;;;;;;;20.40;81.13;98722.53;6145179;23;20345;-89
2023/07/25 07:37:29;;;;;;;8.07;3.38;;;;;;;20.38;81.06;98722.78;6095336;23;20338;-89
2023/07/25 07:39:59;;;;;;;7.03;3.05;;;;;;;20.39;81.27;98712.81;6095186;23;20076;-88
2023/07/25 07:42:26;;;;;;;8.18;3.45;;;;;;;20.39;81.33;98719.00;6119626;23;20561;-86
2023/07/25 07:44:53;;;;;;;9.00;3.83;;;;;;;20.37;81.23;98710.31;6094852;23;20022;-89
2023/07/25 07:47:20;;;;;;;4.53;2.65;;;;;;;20.36;81.41;98713.25;6094681;23;20052;-88
2023/07/25 07:49:47;;;;;;;3.42;2.42;;;;;;;20.32;80.46;98712.88;6119598;23;20078;-85
2023/07/25 07:52:14;;;;;;;6.05;3.13;;;;;;;20.28;80.11;98708.19;6094469;23;20029;-88
2023/07/25 07:54:59;;;;;;;6.32;2.92;;;;;;;20.29;80.83;98710.63;6098315;23;20033;-85
2023/07/25 07:57:26;;;;;;;3.85;2.58;;;;;;;20.32;81.59;98712.88;6071597;23;20024;-87
2023/07/25 07:59:53;;;;;;;7.25;2.85;;;;;;;20.35;82.00;98707.06;6071322;23;20033;-88
2023/07/25 08:02:19;;;;;;;8.60;3.17;;;;;;;20.38;81.92;98711.19;6094901;23;20025;-88
2023/07/25 08:04:46;;;;;;;3.85;2.72;;;;;;;20.42;81.81;98708.84;6117371;23;20018;-88
2023/07/25 08:07:13;;;;;;;4.60;2.75;;;;;;;20.49;81.97;98709.56;6070926;23;20026;-89
2023/07/25 08:09:41;;;;;;;6.40;2.55;;;;;;;20.56;81.77;98708.47;6070528;23;20379;-88
2023/07/25 08:12:08;;;;;;;6.45;2.85;;;;;;;20.65;81.57;98724.31;6096451;23;20468;-88
2023/07/25 08:14:34;;;;;;;5.40;2.70;;;;;;;20.63;81.15;98715.63;6095901;23;20029;-89
2023/07/25 08:17:01;;;;;;;5.93;3.10;;;;;;;20.62;81.27;98719.41;6120701;23;20414;-88
2023/07/25 08:19:28;;;;;;;5.78;2.90;;;;;;;20.61;81.70;98726.66;6120443;23;20085;-89
2023/07/25 08:21:55;;;;;;;5.50;2.63;;;;;;;20.59;81.41;98715.28;6095831;23;20017;-87
2023/07/25 08:24:22;;;;;;;5.60;2.70;;;;;;;20.63;81.13;98715.63;6072734;23;20020;-87
2023/07/25 08:26:49;;;;;;;7.35;2.92;;;;;;;20.65;81.68;98719.75;6094213;23;20025;-87
2023/07/25 08:29:15;;;;;;;7.75;3.58;;;;;;;20.68;81.83;98711.19;6094901;23;20105;-89
2023/07/25 08:31:42;;;;;;;9.25;3.50;;;;;;;20.72;81.98;98709.69;6095803;23;20024;-87
2023/07/25 08:34:09;;;;;;;5.70;3.05;;;;;;;20.80;82.14;98703.16;6094985;23;20021;-89
2023/07/25 08:36:36;;;;;;;7.72;3.00;;;;;;;20.88;82.15;98707.41;6072826;23;20029;-89
2023/07/25 08:39:03;;;;;;;7.13;3.20;;;;;;;20.94;82.18;98707.31;6095781;23;20021;-88
2023/07/25 08:41:30;;;;;;;7.00;3.30;;;;;;;20.98;80.62;98704.97;6120779;23;20080;-87
2023/07/25 08:44:01;;;;;;;5.50;3.40;;;;;;;20.98;80.84;98689.59;6073525;23;20060;-87
2023/07/25 08:46:28;;;;;;;4.55;2.97;;;;;;;21.02;80.83;98690.78;6097922;23;20023;-87
2023/07/25 08:49:00;;;;;;;6.03;2.92;;;;;;;21.05;80.04;98691.38;6097627;23;20029;-88
2023/07/25 08:51:28;;;;;;;8.38;2.63;;;;;;;21.05;79.85;98689.50;6048452;23;20013;-87
2023/07/25 08:54:02;;;;;;;4.95;2.78;;;;;;;21.03;80.13;98697.81;6072605;23;20084;-88
2023/07/25 08:56:30;;;;;;;5.80;2.92;;;;;;;21.06;81.01;98682.22;6073487;23;20017;-87
2023/07/25 08:58:57;;;;;;;8.57;3.08;;;;;;;21.08;81.00;98677.41;6096121;23;20088;-87
2023/07/25 09:01:24;;;;;;;5.82;2.67;;;;;;;21.09;81.20;98679.03;6096438;23;20025;-87
2023/07/25 09:03:53;;;;;;;7.85;2.55;;;;;;;21.12;81.16;98671.31;6073746;23;20025;-86
2023/07/25 09:06:20;;;;;;;4.18;2.45;;;;;;;21.13;80.73;98667.56;6074073;23;20182;-88
2023/07/25 09:08:46;;;;;;;5.50;2.78;;;;;;;21.17;80.48;98666.03;6097190;23;20026;-86
2023/07/25 09:11:16;;;;;;;6.60;2.60;;;;;;;21.12;80.50;98662.41;6097695;23;20431;-87
2023/07/25 09:13:44;;;;;;;6.63;3.05;;;;;;;21.10;80.35;98664.50;6098537;23;20048;-87
2023/07/25 09:16:11;;;;;;;7.75;2.90;;;;;;;21.17;79.95;98668.75;6098480;23;20037;-88
2023/07/25 09:18:42;;;;;;;4.20;2.75;;;;;;;21.25;80.31;98663.00;6120853;23;20021;-86
2023/07/25 09:21:09;;;;;;;5.43;2.75;;;;;;;21.37;79.36;98656.75;6096566;23;20045;-88
2023/07/25 09:23:36;;;;;;;7.43;2.63;;;;;;;21.46;79.68;98661.63;6097733;23;20443;-89
2023/07/25 09:26:09;;;;;;;4.43;2.30;;;;;;;21.52;79.18;98662.56;6073565;23;20045;-87
2023/07/25 09:28:47;;;;;;;5.22;2.90;;;;;;;21.33;74.01;98653.72;6097148;23;20335;-87
2023/07/25 09:31:14;;;;;;;5.45;2.42;;;;;;;21.34;76.67;98659.94;6072714;23;20080;-85
2023/07/25 09:33:41;;;;;;;7.20;3.03;;;;;;;21.27;77.63;98667.34;6071796;23;20033;-88
2023/07/25 09:36:08;;;;;;;5.68;3.33;;;;;;;21.19;78.38;98665.78;6071416;23;20049;-88
2023/07/25 09:38:35;;;;;;;4.60;2.40;;;;;;;21.10;78.64;98649.13;6073246;23;20026;-86
2023/07/25 09:41:03;;;;;;;6.63;2.70;;;;;;;21.07;78.33;98657.69;6071799;23;20531;-86
2023/07/25 09:43:30;;;;;;;10.07;2.95;;;;;;;21.03;78.74;98661.91;6120119;23;20133;-86
2023/07/25 09:45:57;;;;;;;3.67;2.42;;;;;;;21.00;79.51;98657.81;6095476;23;20088;-86
2023/07/25 09:48:24;;;;;;;4.53;2.65;;;;;;;20.96;79.25;98670.13;6048525;23;20029;-86
2023/07/25 09:50:51;;;;;;;5.68;2.92;;;;;;;20.90;80.24;98668.34;6071524;23;20021;-87
2023/07/25 09:53:18;;;;;;;6.82;2.85;;;;;;;20.88;80.67;98669.63;6096574;23;20021;-86
2023/07/25 09:55:45;;;;;;;7.07;3.05;;;;;;;20.89;80.86;98661.31;6096853;23;20013;-87
2023/07/25 09:58:12;;;;;;;5.32;2.63;;;;;;;20.85;80.91;98670.91;6073223;23;20056;-86
2023/07/25 10:00:40;;;;;;;7.90;3.20;;;;;;;20.88;80.33;98659.66;6048444;23;20341;-86
2023/07/25 10:03:10;;;;;;;5.88;2.13;;;;;;;20.80;80.11;98665.38;6118785;23;20390;-86
2023/07/25 10:05:44;;;;;;;4.43;2.72;;;;;;;20.82;80.75;98668.69;6071930;23;20337;-86
2023/07/25 10:08:11;;;;;;;7.25;2.80;;;;;;;20.89;80.88;98650.53;6072073;23;20030;-87
2023/07/25 10:10:40;;;;;;;5.60;3.10;;;;;;;20.94;81.09;98663.28;6071713;23;20358;-86
2023/07/25 10:13:11;;;;;;;4.47;2.50;;;;;;;20.98;81.20;98664.47;6096165;23;20021;-86
2023/07/25 10:15:39;;;;;;;3.50;2.30;;;;;;;20.99;81.48;98669.66;6071236;23;20022;-87
2023/07/25 10:18:25;;;;;;;5.63;2.67;;;;;;;20.86;81.21;98667.16;6119983;23;20025;-87
2023/07/25 10:20:53;;;;;;;5.25;2.65;;;;;;;20.92;80.28;98668.13;6095970;23;20450;-87
2023/07/25 10:23:33;;;;;;;10.32;3.00;;;;;;;20.84;80.42;98680.06;6097166;23;20417;-88
2023/07/25 10:26:13;;;;;;;4.13;2.50;;;;;;;20.84;78.50;98695.41;6072476;23;20018;-88
2023/07/25 10:28:40;;;;;;;3.83;2.42;;;;;;;20.77;78.19;98679.34;6097240;23;20048;-88
2023/07/25 10:31:08;;;;;;;5.55;1.90;;;;;;;20.79;78.08;98698.81;6097864;23;20013;-90
2023/07/25 10:33:39;;;;;;;4.53;2.28;;;;;;;20.73;78.36;98703.22;6097692;23;20024;-91
2023/07/25 10:36:09;;;;;;;5.32;1.90;;;;;;;20.69;78.01;98698.56;6074190;23;20080;-89
2023/07/25 10:38:39;;;;;;;3.70;2.15;;;;;;;20.64;78.46;98704.63;6074614;23;20031;-90
2023/07/25 10:41:09;;;;;;;3.90;1.90;;;;;;;20.61;78.49;98713.19;6074881;23;20454;-89
2023/07/25 10:43:55;;;;;;;5.15;2.30;;;;;;;20.49;78.83;98710.41;6095854;23;20108;-90
2023/07/25 10:46:26;;;;;;;3.95;1.80;;;;;;;20.47;78.90;98717.06;6072490;23;20021;-90
2023/07/25 10:48:54;;;;;;;7.80;2.25;;;;;;;20.44;79.13;98712.94;6095999;23;20045;-88
2023/07/25 10:51:22;;;;;;;7.03;2.33;;;;;;;20.35;79.77;98695.44;6119873;23;20102;-87
2023/07/25 10:54:04;;;;;;;4.47;1.98;;;;;;;20.26;79.81;98697.63;6094009;23;20453;-88
2023/07/25 10:56:31;;;;;;;7.97;2.22;;;;;;;20.27;80.02;98701.94;6145913;23;20017;-87
2023/07/25 10:59:07;;;;;;;5.50;1.80;;;;;;;20.20;80.86;98695.84;6095312;23;20069;-86
2023/07/25 11:01:39;;;;;;;3.13;1.90;;;;;;;20.21;80.32;98704.75;6118653;23;20032;-87
2023/07/25 11:04:32;;;;;;;4.00;1.42;;;;;;;20.12;81.23;98705.06;6117826;23;20026;-87
2023/07/25 11:07:09;;;;;;;;;;;;;;;20.04;81.57;98707.22;6093254;23;20030;-90
2023/07/25 11:09:41;;;;;;;2.92;1.80;;;;;;;20.19;80.24;98713.03;6070623;23;19928;-86
2023/07/25 11:12:10;;;;;;;3.75;1.75;;;;;;;20.25;80.56;98711.31;6069851;23;20028;-87
2023/07/25 11:14:42;;;;;;;4.68;2.38;;;;;;;20.29;80.60;98721.44;6095402;23;20340;-89
2023/07/25 11:17:10;;;;;;;6.80;2.15;;;;;;;20.32;80.54;98728.22;6046723;23;20013;-87
2023/07/25 11:19:36;;;;;;;4.90;2.20;;;;;;;20.36;80.93;98735.66;6096049;23;20081;-89
2023/07/25 11:22:11;;;;;;;7.10;2.10;;;;;;;20.33;81.07;98738.81;6094364;23;20480;-89
2023/07/25 11:24:48;;;;;;;2.60;1.85;;;;;;;20.39;80.52;98737.88;6094326;23;20041;-86
2023/07/25 11:27:15;;;;;;;2.72;1.70;;;;;;;20.41;80.55;98736.84;6119935;23;20021;-89
2023/07/25 11:29:41;;;;;;;5.07;2.85;;;;;;;20.43;81.18;98734.72;6070658;23;20390;-89
2023/07/25 11:32:08;;;;;;;3.55;1.88;;;;;;;20.44;79.50;98744.50;6095454;23;20025;-89
2023/07/25 11:34:36;;;;;;;2.55;1.67;;;;;;;20.40;77.93;98741.41;6094893;23;20049;-88